Time;durP1;ratioP1;P1;durP2;ratioP2;P2;SDS_P1;SDS_P2;PMS_P1;PMS_P2;Temp;Humidity;BMP_temperature;BMP_pressure;BME280_temperature;BME280_humidity;BME280_pressure;Samples;Min_cycle;Max_cycle;Signal;HPM_P1;HPM_P2
2021/12/07 00:00:21;;;;;;;11.10;9.53;;;2.30;99.90;;;;;;5051038;28;20282;-85
2021/12/07 00:02:50;;;;;;;15.02;9.30;;;2.30;99.90;;;;;;5051188;28;20209;-84
2021/12/07 00:05:19;;;;;;;11.43;9.10;;;2.30;99.90;;;;;;5050885;28;20209;-84
2021/12/07 00:07:48;;;;;;;8.30;7.50;;;2.30;99.90;;;;;;5050974;28;20308;-84
2021/12/07 00:10:18;;;;;;;10.38;9.10;;;2.30;99.90;;;;;;5051065;28;20220;-85
2021/12/07 00:12:47;;;;;;;8.53;7.73;;;2.30;99.90;;;;;;5050452;27;20210;-85
2021/12/07 00:15:21;;;;;;;9.53;7.77;;;2.30;99.90;;;;;;5051049;27;20261;-84
2021/12/07 00:17:54;;;;;;;9.60;8.60;;;2.20;99.90;;;;;;5050741;27;20232;-84
2021/12/07 00:20:24;;;;;;;9.80;8.77;;;2.20;99.90;;;;;;5050277;27;20222;-84
2021/12/07 00:23:00;;;;;;;11.00;8.53;;;2.20;99.90;;;;;;5051303;28;20198;-84
2021/12/07 00:25:30;;;;;;;8.80;7.93;;;2.20;99.90;;;;;;5051093;28;20209;-84
2021/12/07 00:27:59;;;;;;;9.43;8.23;;;2.20;99.90;;;;;;5050077;27;20234;-84
2021/12/07 00:30:31;;;;;;;8.50;7.57;;;2.20;99.90;;;;;;5050328;28;20222;-84
2021/12/07 00:33:12;;;;;;;10.40;8.50;;;2.10;99.90;;;;;;5050963;28;20292;-84
2021/12/07 00:35:41;;;;;;;9.83;8.13;;;2.20;99.90;;;;;;5051350;27;20210;-84
2021/12/07 00:38:12;;;;;;;11.57;9.10;;;2.20;99.90;;;;;;5050159;27;20282;-84
2021/12/07 00:40:43;;;;;;;12.43;8.43;;;2.20;99.90;;;;;;5049696;28;20217;-84
2021/12/07 00:43:12;;;;;;;10.63;8.40;;;2.20;99.90;;;;;;5050616;28;20206;-84
2021/12/07 00:45:43;;;;;;;14.93;10.53;;;2.20;99.90;;;;;;5050813;28;20202;-85
2021/12/07 00:48:13;;;;;;;11.97;9.47;;;2.20;99.90;;;;;;5050446;27;20256;-84
2021/12/07 00:50:44;;;;;;;11.07;8.13;;;2.20;99.90;;;;;;5049806;28;20233;-84
2021/12/07 00:53:12;;;;;;;7.93;7.10;;;2.20;99.90;;;;;;5050508;28;20237;-84
2021/12/07 00:55:45;;;;;;;8.93;7.57;;;2.10;99.90;;;;;;5050400;28;20230;-84
2021/12/07 00:58:18;;;;;;;11.13;8.37;;;2.10;99.90;;;;;;5049899;28;20226;-84
2021/12/07 01:00:50;;;;;;;8.70;7.90;;;2.10;99.90;;;;;;5049579;28;20223;-84
2021/12/07 01:03:18;;;;;;;8.10;7.30;;;2.10;99.90;;;;;;5050465;27;20206;-84
2021/12/07 01:05:50;;;;;;;9.13;8.10;;;2.10;99.90;;;;;;5050794;27;20294;-84
2021/12/07 01:24:52;;;;;;;8.80;7.90;;;2.00;99.90;;;;;;5050509;28;20258;-84
2021/12/07 01:27:22;;;;;;;9.17;7.90;;;2.00;99.90;;;;;;5050248;28;20313;-84
2021/12/07 01:30:02;;;;;;;10.43;8.47;;;2.10;99.90;;;;;;5049989;27;20297;-84
2021/12/07 01:32:43;;;;;;;11.33;7.93;;;2.10;99.90;;;;;;5049949;27;20288;-84
2021/12/07 01:38:17;;;;;;;13.63;8.33;;;2.00;99.90;;;;;;5049534;27;20234;-84
2021/12/07 01:40:57;;;;;;;8.57;7.60;;;2.00;99.90;;;;;;5049043;27;20225;-84
2021/12/07 01:44:02;;;;;;;8.10;7.20;;;2.00;99.90;;;;;;5049997;27;20209;-84
2021/12/07 01:50:08;;;;;;;8.90;8.00;;;2.00;99.90;;;;;;5011207;28;20241;-84
2021/12/07 01:52:57;;;;;;;8.63;7.73;;;2.10;99.90;;;;;;5049722;27;20221;-84
2021/12/07 02:01:11;;;;;;;9.33;7.47;;;2.00;99.90;;;;;;5049233;28;20309;-84
2021/12/07 02:03:40;;;;;;;9.37;7.77;;;2.00;99.90;;;;;;5049438;28;20213;-84
2021/12/07 02:06:10;;;;;;;12.40;7.67;;;2.00;99.90;;;;;;5049369;28;20267;-84
2021/12/07 02:08:38;;;;;;;17.73;9.10;;;2.00;99.90;;;;;;5049285;28;20249;-84
2021/12/07 02:11:07;;;;;;;8.50;7.70;;;2.00;99.90;;;;;;5049040;27;20289;-84
2021/12/07 02:16:25;;;;;;;10.73;8.05;;;2.00;99.90;;;;;;5042327;27;20233;-84
2021/12/07 02:18:54;;;;;;;10.20;8.23;;;2.00;99.90;;;;;;5048778;28;20293;-84
2021/12/07 02:21:25;;;;;;;9.33;8.13;;;2.00;99.90;;;;;;5049493;28;20257;-84
2021/12/07 02:23:55;;;;;;;10.43;9.00;;;2.00;99.90;;;;;;5049263;28;20210;-84
2021/12/07 02:26:23;;;;;;;9.57;8.33;;;2.00;99.90;;;;;;5049191;28;20201;-84
2021/12/07 02:28:53;;;;;;;9.13;8.23;;;2.00;99.90;;;;;;5048908;28;20245;-84
2021/12/07 02:31:22;;;;;;;10.15;8.95;;;2.00;99.90;;;;;;5049124;27;20266;-84
2021/12/07 02:33:51;;;;;;;9.77;8.00;;;2.00;99.90;;;;;;5049607;28;20282;-84
2021/12/07 02:36:19;;;;;;;9.03;8.13;;;2.00;99.90;;;;;;5048953;28;20284;-84
2021/12/07 02:38:50;;;;;;;10.13;8.70;;;2.00;99.90;;;;;;5048810;27;20276;-84
2021/12/07 02:41:19;;;;;;;9.63;8.63;;;2.00;99.90;;;;;;5048740;28;20252;-83
2021/12/07 02:43:48;;;;;;;14.40;8.97;;;2.00;99.90;;;;;;5049071;28;20225;-83
2021/12/07 02:46:17;;;;;;;9.57;8.07;;;2.00;99.90;;;;;;5049101;28;20210;-83
2021/12/07 02:48:45;;;;;;;10.70;9.20;;;2.00;99.90;;;;;;5048404;27;20265;-84
2021/12/07 02:51:13;;;;;;;9.77;8.77;;;2.00;99.90;;;;;;5051425;27;20285;-84
2021/12/07 02:53:42;;;;;;;10.77;8.97;;;2.00;99.90;;;;;;5052311;28;20292;-83
2021/12/07 02:56:12;;;;;;;12.40;9.30;;;2.00;99.90;;;;;;5052473;28;20213;-83
2021/12/07 02:58:43;;;;;;;18.50;7.93;;;2.00;99.90;;;;;;5052226;27;20218;-84
2021/12/07 03:01:18;;;;;;;10.30;9.13;;;2.00;99.90;;;;;;5052489;28;20277;-83
2021/12/07 03:03:57;;;;;;;9.50;8.37;;;2.00;99.90;;;;;;5052496;27;20212;-83
2021/12/07 03:06:35;;;;;;;17.07;9.27;;;2.00;99.90;;;;;;5052277;27;20261;-84
2021/12/07 03:26:03;;;;;;;14.43;9.70;;;2.00;99.90;;;;;;5052251;28;20209;-84
2021/12/07 03:28:34;;;;;;;11.93;10.03;;;2.00;99.90;;;;;;5052159;27;20226;-84
2021/12/07 03:31:02;;;;;;;23.03;9.30;;;2.00;99.90;;;;;;5051963;27;20198;-84
2021/12/07 03:33:31;;;;;;;9.07;8.20;;;2.00;99.90;;;;;;5052038;28;20201;-84
2021/12/07 03:36:00;;;;;;;11.03;9.07;;;2.00;99.90;;;;;;5052114;27;20202;-84
2021/12/07 03:38:29;;;;;;;9.53;8.53;;;2.00;99.90;;;;;;5051322;27;20229;-84
2021/12/07 03:40:57;;;;;;;9.43;8.17;;;2.00;99.90;;;;;;5051385;27;20256;-84
2021/12/07 03:43:26;;;;;;;10.23;9.17;;;2.00;99.90;;;;;;5051660;28;20233;-84
2021/12/07 03:45:56;;;;;;;11.13;8.90;;;1.90;99.90;;;;;;5051966;27;20214;-84
2021/12/07 03:48:25;;;;;;;10.10;8.70;;;1.90;99.90;;;;;;5051489;27;20233;-84
2021/12/07 03:50:53;;;;;;;9.37;8.43;;;1.90;99.90;;;;;;5051312;27;20313;-84
2021/12/07 03:53:22;;;;;;;10.33;9.17;;;1.90;99.90;;;;;;5052107;27;20285;-83
2021/12/07 03:55:50;;;;;;;11.70;9.47;;;2.00;99.90;;;;;;5051787;28;20296;-84
2021/12/07 03:58:18;;;;;;;11.67;9.00;;;2.00;99.90;;;;;;5051267;27;20306;-83
2021/12/07 04:00:48;;;;;;;13.27;9.93;;;2.00;99.90;;;;;;5050821;28;20233;-84
2021/12/07 04:03:20;;;;;;;12.20;9.83;;;2.00;99.90;;;;;;5050694;28;20205;-83
2021/12/07 04:05:54;;;;;;;14.97;11.33;;;2.00;99.90;;;;;;5051699;28;20202;-84
2021/12/07 04:08:25;;;;;;;11.23;9.10;;;2.00;99.90;;;;;;5050912;27;20250;-83
2021/12/07 04:10:54;;;;;;;21.20;10.17;;;2.00;99.90;;;;;;5051160;28;20232;-83
2021/12/07 04:13:24;;;;;;;9.47;8.50;;;2.00;99.90;;;;;;5051287;27;20210;-84
2021/12/07 04:15:54;;;;;;;12.37;9.67;;;2.00;99.90;;;;;;5051349;28;20253;-84
2021/12/07 04:18:25;;;;;;;11.18;8.80;;;2.00;99.90;;;;;;5051180;28;20245;-83
2021/12/07 04:20:54;;;;;;;11.47;9.30;;;2.00;99.90;;;;;;5050684;27;20229;-84
2021/12/07 04:23:22;;;;;;;10.73;9.57;;;2.00;99.90;;;;;;5050864;28;20265;-83
2021/12/07 04:25:51;;;;;;;12.87;9.30;;;2.00;99.90;;;;;;5050794;28;20209;-82
2021/12/07 04:28:19;;;;;;;11.20;9.37;;;2.00;99.90;;;;;;5050972;27;20316;-83
2021/12/07 04:30:48;;;;;;;14.83;10.13;;;2.00;99.90;;;;;;5051000;27;20233;-84
2021/12/07 04:33:17;;;;;;;12.15;9.63;;;2.00;99.90;;;;;;5050959;28;20206;-84
2021/12/07 04:35:49;;;;;;;11.20;9.17;;;2.00;99.90;;;;;;5050818;28;20202;-83
2021/12/07 04:38:19;;;;;;;20.03;10.37;;;2.00;99.90;;;;;;5050596;28;20282;-83
2021/12/07 04:40:48;;;;;;;11.13;9.33;;;2.00;99.90;;;;;;5050782;28;20190;-83
2021/12/07 04:43:17;;;;;;;18.07;9.57;;;2.00;99.90;;;;;;5050786;27;20251;-83
2021/12/07 04:45:58;;;;;;;14.47;10.17;;;2.00;99.90;;;;;;5050833;28;20201;-84
2021/12/07 05:00:01;;;;;;;16.43;10.70;;;2.00;99.90;;;;;;5007683;28;20290;-84
2021/12/07 05:02:30;;;;;;;11.27;9.93;;;1.90;99.90;;;;;;5044329;28;20240;-84
2021/12/07 05:04:58;;;;;;;11.70;10.13;;;1.90;99.90;;;;;;5069642;28;20235;-84
2021/12/07 05:07:33;;;;;;;12.87;10.93;;;1.80;99.90;;;;;;5069174;28;20229;-84
2021/12/07 05:13:23;;;;;;;13.07;9.47;;;1.80;99.90;;;;;;5068459;28;20209;-84
2021/12/07 05:18:58;;;;;;;16.23;11.87;;;1.80;99.90;;;;;;5065133;28;20252;-85
2021/12/07 05:24:18;;;;;;;12.63;10.60;;;1.80;99.90;;;;;;5069814;28;20205;-85
2021/12/07 05:37:55;;;;;;;15.87;11.13;;;1.80;99.90;;;;;;5068874;28;20232;-84
2021/12/07 05:40:27;;;;;;;14.57;12.03;;;1.90;99.90;;;;;;5068407;28;20293;-84
2021/12/07 05:42:56;;;;;;;16.80;11.63;;;1.80;99.90;;;;;;5069085;28;20209;-85
2021/12/07 05:45:27;;;;;;;15.47;12.67;;;1.80;99.90;;;;;;5068556;28;20292;-84
2021/12/07 05:47:55;;;;;;;15.27;11.17;;;1.90;99.90;;;;;;5068699;28;20237;-84
2021/12/07 05:50:27;;;;;;;15.10;12.03;;;1.90;99.90;;;;;;5068019;28;20317;-84
2021/12/07 05:52:56;;;;;;;14.63;10.70;;;1.90;99.90;;;;;;5068121;28;20233;-85
2021/12/07 05:55:27;;;;;;;14.80;11.53;;;1.80;99.90;;;;;;5068707;28;20197;-85
2021/12/07 05:57:56;;;;;;;11.80;10.27;;;1.90;99.90;;;;;;5068809;28;20283;-85
2021/12/07 06:00:27;;;;;;;12.23;10.20;;;1.80;99.90;;;;;;5068137;28;20265;-85
2021/12/07 06:02:58;;;;;;;12.13;10.37;;;1.80;99.90;;;;;;5054613;28;20235;-85
2021/12/07 06:05:29;;;;;;;16.43;10.93;;;1.90;99.90;;;;;;5055112;28;20213;-85
2021/12/07 06:07:58;;;;;;;14.37;11.53;;;1.90;99.90;;;;;;5055488;28;20245;-85
2021/12/07 06:10:29;;;;;;;15.83;8.77;;;1.90;99.90;;;;;;5054533;28;20217;-85
2021/12/07 06:12:58;;;;;;;11.70;9.73;;;1.90;99.90;;;;;;5053852;28;20206;-85
2021/12/07 06:15:31;;;;;;;14.93;10.90;;;1.90;99.90;;;;;;5054739;28;20225;-85
2021/12/07 06:18:00;;;;;;;14.70;11.43;;;1.90;99.90;;;;;;5055273;28;20233;-85
2021/12/07 06:20:28;;;;;;;10.47;9.47;;;2.00;99.90;;;;;;5054997;28;20226;-85
2021/12/07 06:23:15;;;;;;;12.63;10.47;;;1.90;99.90;;;;;;5055042;28;20221;-85
2021/12/07 06:25:46;;;;;;;13.60;10.70;;;2.00;99.90;;;;;;5055074;28;20201;-85
2021/12/07 06:28:14;;;;;;;17.63;11.70;;;2.00;99.90;;;;;;5054674;28;20233;-85
2021/12/07 06:30:43;;;;;;;11.73;10.20;;;2.00;99.90;;;;;;5054185;28;20313;-85
2021/12/07 06:33:13;;;;;;;15.40;11.77;;;2.00;99.90;;;;;;5054829;28;20205;-85
2021/12/07 06:35:42;;;;;;;12.07;10.60;;;1.90;99.90;;;;;;5055231;28;20205;-85
2021/12/07 06:38:11;;;;;;;10.67;9.57;;;2.00;99.90;;;;;;5054203;28;20249;-84
2021/12/07 06:40:40;;;;;;;16.07;11.13;;;2.00;99.90;;;;;;5053669;28;20233;-84
2021/12/07 06:43:09;;;;;;;11.87;10.00;;;2.00;99.90;;;;;;5054656;28;20208;-84
2021/12/07 06:45:38;;;;;;;12.67;10.03;;;2.00;99.90;;;;;;5054471;28;20248;-84
2021/12/07 06:48:07;;;;;;;9.73;8.77;;;2.10;99.90;;;;;;5054390;28;20305;-84
2021/12/07 06:50:35;;;;;;;14.40;10.57;;;2.00;99.90;;;;;;5053812;28;20221;-84
2021/12/07 06:53:04;;;;;;;14.90;11.07;;;2.00;99.90;;;;;;5054242;28;20240;-84
2021/12/07 06:55:33;;;;;;;10.37;9.20;;;2.00;99.90;;;;;;5054589;28;20253;-84
2021/12/07 06:58:01;;;;;;;10.90;9.80;;;2.00;99.90;;;;;;5054305;28;20312;-84
2021/12/07 07:00:31;;;;;;;9.80;8.83;;;2.00;99.90;;;;;;5054064;28;20326;-84
2021/12/07 07:03:00;;;;;;;10.50;9.40;;;2.00;99.90;;;;;;5054234;28;20201;-84
2021/12/07 07:05:30;;;;;;;11.33;10.00;;;2.00;99.90;;;;;;5053887;28;20220;-85
2021/12/07 07:07:58;;;;;;;11.73;10.33;;;1.90;99.90;;;;;;5053808;28;20221;-85
2021/12/07 07:10:27;;;;;;;15.70;11.30;;;2.00;99.90;;;;;;5053715;28;20214;-84
2021/12/07 07:12:56;;;;;;;10.77;9.50;;;2.00;99.90;;;;;;5053182;28;20292;-85
2021/12/07 07:15:24;;;;;;;17.70;11.97;;;1.90;99.90;;;;;;5053539;28;20206;-84
2021/12/07 07:17:54;;;;;;;11.40;9.33;;;2.00;99.90;;;;;;5053764;28;20320;-84
2021/12/07 07:20:23;;;;;;;11.23;10.03;;;1.90;99.90;;;;;;5053562;28;20210;-85
2021/12/07 07:22:52;;;;;;;15.27;12.23;;;1.90;99.90;;;;;;5053986;28;20205;-84
2021/12/07 07:25:21;;;;;;;14.73;10.03;;;1.90;99.90;;;;;;5053761;28;20210;-85
2021/12/07 07:27:51;;;;;;;12.97;10.87;;;1.80;99.90;;;;;;5053864;28;20230;-85
2021/12/07 07:30:21;;;;;;;12.80;10.37;;;1.80;99.90;;;;;;5052912;28;20206;-84
2021/12/07 07:32:50;;;;;;;15.87;11.37;;;1.80;99.90;;;;;;5053802;28;20202;-84
2021/12/07 07:35:21;;;;;;;11.93;10.33;;;1.80;99.90;;;;;;5053820;28;20213;-84
2021/12/07 07:37:50;;;;;;;19.63;12.20;;;1.70;99.90;;;;;;5053522;28;20260;-85
2021/12/07 07:40:22;;;;;;;15.60;10.67;;;1.70;99.90;;;;;;5053014;28;20201;-85
2021/12/07 07:42:50;;;;;;;15.67;11.33;;;1.70;99.90;;;;;;5053157;28;20202;-85
2021/12/07 07:45:20;;;;;;;11.27;10.07;;;1.70;99.90;;;;;;5053749;28;20270;-85
2021/12/07 07:47:48;;;;;;;14.23;11.73;;;1.70;99.90;;;;;;5053435;28;20225;-85
2021/12/07 07:50:17;;;;;;;14.53;10.63;;;1.70;99.90;;;;;;5052824;28;20213;-85
2021/12/07 07:52:47;;;;;;;12.07;10.87;;;1.70;99.90;;;;;;5053022;28;20285;-85
2021/12/07 07:55:16;;;;;;;16.87;11.23;;;1.70;99.90;;;;;;5053240;28;20205;-85
2021/12/07 07:57:45;;;;;;;16.50;11.47;;;1.70;99.90;;;;;;5053346;28;20225;-84
2021/12/07 08:00:17;;;;;;;16.83;11.90;;;1.70;99.90;;;;;;5052496;28;20209;-85
2021/12/07 08:02:45;;;;;;;15.87;12.57;;;1.70;99.90;;;;;;5053234;28;20206;-84
2021/12/07 08:05:15;;;;;;;12.73;10.67;;;1.70;99.90;;;;;;5052669;28;20247;-84
2021/12/07 08:07:47;;;;;;;13.50;11.37;;;1.70;99.90;;;;;;5053231;28;20260;-84
2021/12/07 08:10:21;;;;;;;12.87;11.07;;;1.70;99.90;;;;;;5052339;28;20208;-85
2021/12/07 08:12:49;;;;;;;14.30;11.00;;;1.80;99.90;;;;;;5051460;28;20312;-84
2021/12/07 08:15:18;;;;;;;15.53;10.90;;;1.80;99.90;;;;;;5052585;28;20336;-84
2021/12/07 08:17:47;;;;;;;14.40;10.80;;;1.80;99.90;;;;;;5052748;28;20218;-84
2021/12/07 08:20:16;;;;;;;12.80;10.77;;;1.80;99.90;;;;;;5052347;28;20238;-85
2021/12/07 08:22:44;;;;;;;14.70;11.07;;;1.80;99.90;;;;;;5052917;28;20225;-85
2021/12/07 08:25:14;;;;;;;11.67;10.33;;;1.90;99.90;;;;;;5052619;28;20206;-85
2021/12/07 08:27:43;;;;;;;11.20;10.07;;;1.90;99.90;;;;;;5053033;28;20294;-85
2021/12/07 08:30:15;;;;;;;12.67;10.03;;;1.90;99.90;;;;;;5051991;28;20269;-86
2021/12/07 08:32:45;;;;;;;12.73;10.87;;;1.90;99.90;;;;;;5052825;28;20225;-84
2021/12/07 08:35:16;;;;;;;11.73;10.47;;;2.00;99.90;;;;;;5052576;28;20265;-85
2021/12/07 08:37:46;;;;;;;16.37;10.63;;;2.10;99.90;;;;;;5052427;28;20293;-85
2021/12/07 08:40:17;;;;;;;13.43;9.60;;;2.10;99.90;;;;;;5051434;28;20201;-85
2021/12/07 08:42:47;;;;;;;14.10;10.77;;;2.20;99.90;;;;;;5052784;28;20202;-85
2021/12/07 08:45:16;;;;;;;22.03;10.00;;;2.20;99.90;;;;;;5052862;28;20213;-85
2021/12/07 08:47:45;;;;;;;12.75;10.55;;;2.30;99.90;;;;;;5052016;28;20293;-85
2021/12/07 08:50:15;;;;;;;13.32;9.55;;;2.30;99.90;;;;;;5051732;28;20229;-85
2021/12/07 08:52:45;;;;;;;14.03;10.93;;;2.40;99.90;;;;;;5052044;28;20241;-84
2021/12/07 09:00:48;;;;;;;13.30;10.83;;;2.50;99.90;;;;;;5052022;28;20231;-85
2021/12/07 09:03:16;;;;;;;11.20;9.53;;;2.60;99.90;;;;;;5052032;28;20206;-85
2021/12/07 09:05:45;;;;;;;10.53;9.40;;;2.60;99.90;;;;;;5052068;28;20201;-85
2021/12/07 09:08:15;;;;;;;12.47;11.13;;;2.70;99.90;;;;;;5052194;28;20468;-85
2021/12/07 09:10:44;;;;;;;10.90;9.77;;;2.80;99.90;;;;;;5051522;28;20452;-85
2021/12/07 09:13:14;;;;;;;11.70;9.23;;;2.80;99.90;;;;;;5050622;28;20272;-85
2021/12/07 09:15:42;;;;;;;12.30;10.30;;;2.90;99.90;;;;;;5052239;28;20228;-83
2021/12/07 09:18:11;;;;;;;12.52;9.85;;;3.00;99.90;;;;;;5052355;28;20288;-85
2021/12/07 09:20:39;;;;;;;16.03;12.13;;;3.10;99.90;;;;;;5051590;28;20259;-85
2021/12/07 09:23:08;;;;;;;11.43;9.52;;;3.20;99.90;;;;;;5052124;28;20198;-85
2021/12/07 09:25:37;;;;;;;14.75;10.82;;;3.40;99.90;;;;;;5051994;28;20229;-84
2021/12/07 09:28:06;;;;;;;12.52;9.73;;;3.50;99.90;;;;;;5051926;28;20249;-85
2021/12/07 09:30:36;;;;;;;10.98;9.25;;;3.50;99.90;;;;;;5052172;28;20237;-86
2021/12/07 09:33:05;;;;;;;10.45;9.10;;;3.60;99.90;;;;;;5051831;28;20254;-85
2021/12/07 09:35:35;;;;;;;14.60;11.15;;;3.60;99.90;;;;;;5051703;28;20229;-85
2021/12/07 09:38:04;;;;;;;11.40;9.68;;;3.50;99.90;;;;;;5055350;28;20226;-85
2021/12/07 09:40:33;;;;;;;10.55;9.48;;;3.50;99.90;;;;;;5055266;28;20205;-86
2021/12/07 09:43:02;;;;;;;13.27;10.10;;;3.60;99.90;;;;;;5055703;28;20284;-85
2021/12/07 09:45:31;;;;;;;11.50;8.60;;;3.60;99.90;;;;;;5055849;28;20265;-85
2021/12/07 09:48:03;;;;;;;10.35;9.27;;;3.60;99.90;;;;;;5055414;28;20229;-85
2021/12/07 09:50:34;;;;;;;13.52;9.80;;;3.60;99.90;;;;;;5055124;28;20222;-85
2021/12/07 09:53:04;;;;;;;9.95;8.95;;;3.70;99.90;;;;;;5055598;28;20328;-85
2021/12/07 09:55:32;;;;;;;11.93;8.07;;;3.80;99.90;;;;;;5055435;28;20229;-85
2021/12/07 09:58:01;;;;;;;11.73;9.95;;;3.90;99.90;;;;;;5055394;28;20304;-85
2021/12/07 10:00:30;;;;;;;14.18;10.27;;;4.00;99.90;;;;;;5054880;28;20306;-85
2021/12/07 10:02:59;;;;;;;11.02;9.90;;;4.30;99.90;;;;;;5055690;28;20206;-85
2021/12/07 10:05:31;;;;;;;13.00;10.38;;;4.50;99.90;;;;;;5055602;28;20292;-85
2021/12/07 10:07:59;;;;;;;10.32;8.88;;;4.70;99.90;;;;;;5055364;28;20230;-85
2021/12/07 10:10:31;;;;;;;13.75;10.02;;;4.80;99.90;;;;;;5054495;28;20198;-85
2021/12/07 10:13:01;;;;;;;10.52;8.93;;;4.90;99.90;;;;;;5055101;28;20226;-85
2021/12/07 10:15:30;;;;;;;14.52;9.35;;;5.00;99.90;;;;;;5055323;28;20202;-85
2021/12/07 10:18:02;;;;;;;9.73;8.60;;;5.20;99.90;;;;;;5054981;28;20230;-85
2021/12/07 10:20:40;;;;;;;9.77;8.57;;;5.10;99.90;;;;;;5054535;28;20256;-85
2021/12/07 10:23:29;;;;;;;22.88;8.07;;;5.10;99.90;;;;;;5054815;28;20221;-85
2021/12/07 10:26:04;;;;;;;10.30;8.38;;;4.80;99.90;;;;;;5054428;28;20210;-85
2021/12/07 10:28:36;;;;;;;8.50;7.57;;;4.80;99.90;;;;;;5055021;28;20221;-85
2021/12/07 10:31:26;;;;;;;12.23;9.60;;;4.60;99.90;;;;;;5054868;28;20233;-85
2021/12/07 10:33:58;;;;;;;11.57;10.13;;;4.60;99.90;;;;;;5054538;28;20317;-86
2021/12/07 10:36:31;;;;;;;13.27;10.65;;;4.60;99.90;;;;;;5054806;28;20209;-85
2021/12/07 10:39:07;;;;;;;12.70;9.00;;;4.70;99.90;;;;;;5054272;28;20233;-85
2021/12/07 10:41:38;;;;;;;11.75;9.20;;;4.80;99.90;;;;;;5054288;28;20296;-85
2021/12/07 10:44:09;;;;;;;12.57;8.15;;;4.80;99.90;;;;;;5054527;28;20209;-85
2021/12/07 10:46:44;;;;;;;9.40;8.40;;;4.80;99.90;;;;;;5054864;28;20285;-85
2021/12/07 10:49:30;;;;;;;10.30;8.90;;;4.80;99.90;;;;;;5053966;28;20197;-85
2021/12/07 10:52:11;;;;;;;9.70;8.70;;;4.80;99.90;;;;;;5054726;28;20226;-85
2021/12/07 10:54:43;;;;;;;11.95;8.00;;;4.70;99.90;;;;;;5054444;28;20259;-85
2021/12/07 10:57:15;;;;;;;12.25;10.00;;;4.70;99.90;;;;;;5053994;28;20240;-85
2021/12/07 11:00:04;;;;;;;8.75;7.88;;;4.70;99.90;;;;;;5053579;28;20310;-85
2021/12/07 11:02:34;;;;;;;9.02;8.07;;;4.70;99.90;;;;;;5054300;28;20280;-85
2021/12/07 11:05:06;;;;;;;11.88;8.90;;;4.80;99.90;;;;;;5054275;28;20213;-85
2021/12/07 11:07:38;;;;;;;12.18;8.88;;;4.60;99.90;;;;;;5054273;28;20300;-85
2021/12/07 11:10:13;;;;;;;9.98;8.98;;;4.70;99.90;;;;;;5053722;28;20256;-85
2021/12/07 11:12:48;;;;;;;11.10;9.95;;;4.70;99.90;;;;;;5052784;28;20247;-85
2021/12/07 11:15:23;;;;;;;14.18;10.07;;;4.80;99.90;;;;;;5053573;28;20210;-85
2021/12/07 11:17:53;;;;;;;11.85;9.73;;;4.70;99.90;;;;;;5053744;28;20221;-85
2021/12/07 11:20:22;;;;;;;11.07;9.25;;;4.70;99.90;;;;;;5053530;28;20209;-85
2021/12/07 11:22:55;;;;;;;13.55;9.75;;;4.60;99.90;;;;;;5054057;28;20221;-85
2021/12/07 11:25:53;;;;;;;11.27;8.93;;;4.70;99.90;;;;;;5053830;28;20259;-85
2021/12/07 11:31:18;;;;;;;11.40;10.23;;;4.70;99.90;;;;;;5053652;28;20230;-85
2021/12/07 11:33:48;;;;;;;9.55;8.65;;;4.80;99.90;;;;;;5053304;28;20268;-85
2021/12/07 11:36:19;;;;;;;9.57;8.63;;;4.80;99.90;;;;;;5053951;28;20225;-85
2021/12/07 11:38:50;;;;;;;10.85;9.07;;;4.80;99.90;;;;;;5052773;28;20308;-85
2021/12/07 11:41:21;;;;;;;10.80;9.63;;;4.80;99.90;;;;;;5053269;28;20210;-85
2021/12/07 11:43:57;;;;;;;10.05;8.73;;;4.80;99.90;;;;;;5054021;28;20213;-85
2021/12/07 11:46:27;;;;;;;11.55;9.35;;;4.80;99.90;;;;;;5053777;28;20256;-85
2021/12/07 11:49:07;;;;;;;11.68;9.15;;;4.70;99.90;;;;;;5053069;28;20237;-85
2021/12/07 11:51:36;;;;;;;11.30;8.70;;;4.80;99.90;;;;;;5053414;28;20273;-85
2021/12/07 11:54:07;;;;;;;10.88;9.70;;;4.80;99.90;;;;;;5053014;28;20309;-85
2021/12/07 11:56:36;;;;;;;12.32;10.13;;;4.90;99.90;;;;;;5053315;28;20202;-85
2021/12/07 11:59:05;;;;;;;8.18;7.30;;;5.10;99.90;;;;;;5052242;28;20298;-85
2021/12/07 12:01:44;;;;;;;10.10;8.88;;;5.30;99.90;;;;;;5053371;28;20233;-85
2021/12/07 12:04:14;;;;;;;10.07;8.80;;;5.30;99.90;;;;;;5053301;28;20193;-85
2021/12/07 12:06:43;;;;;;;9.98;8.93;;;5.50;99.90;;;;;;5052452;28;20228;-85
2021/12/07 12:09:13;;;;;;;17.90;9.60;;;5.50;99.90;;;;;;5052145;28;20233;-84
2021/12/07 12:11:50;;;;;;;11.52;8.52;;;5.40;99.90;;;;;;5051492;28;20206;-85
2021/12/07 12:14:45;;;;;;;10.10;9.02;;;5.30;99.90;;;;;;5052950;28;20245;-84
2021/12/07 12:17:19;;;;;;;10.40;8.40;;;5.00;99.90;;;;;;5052749;28;20236;-85
2021/12/07 12:20:02;;;;;;;9.57;8.68;;;4.80;99.90;;;;;;5052099;28;20280;-84
2021/12/07 12:22:37;;;;;;;11.18;10.00;;;4.70;99.90;;;;;;5052493;28;20197;-85
2021/12/07 12:25:10;;;;;;;17.02;11.00;;;4.70;99.90;;;;;;5052887;28;20247;-85
2021/12/07 12:27:44;;;;;;;11.70;10.52;;;4.60;99.90;;;;;;5052992;28;20240;-84
2021/12/07 12:30:22;;;;;;;14.38;10.98;;;4.60;99.90;;;;;;5052274;28;20237;-85
2021/12/07 12:32:55;;;;;;;10.98;9.23;;;4.50;99.90;;;;;;5052566;28;20209;-84
2021/12/07 12:35:34;;;;;;;15.38;11.23;;;4.50;99.90;;;;;;5052104;28;20249;-84
2021/12/07 12:38:03;;;;;;;13.95;11.50;;;4.40;99.90;;;;;;5052627;28;20230;-84
2021/12/07 12:40:34;;;;;;;20.13;10.90;;;4.40;99.90;;;;;;5051528;28;20207;-85
2021/12/07 12:43:03;;;;;;;15.38;11.10;;;4.40;99.90;;;;;;5052330;28;20202;-85
2021/12/07 12:45:35;;;;;;;13.63;11.68;;;4.40;99.90;;;;;;5052615;28;20255;-84
2021/12/07 12:48:06;;;;;;;20.48;12.30;;;4.40;99.90;;;;;;5052689;28;20310;-84
2021/12/07 12:50:38;;;;;;;14.98;9.80;;;4.50;99.90;;;;;;5052005;28;20214;-84
2021/12/07 12:53:08;;;;;;;13.40;11.38;;;4.60;99.90;;;;;;5052630;28;20237;-84
2021/12/07 12:55:43;;;;;;;10.68;9.52;;;4.60;99.90;;;;;;5052658;28;20251;-84
2021/12/07 12:58:16;;;;;;;14.38;11.27;;;4.60;99.90;;;;;;5052257;28;20247;-84
2021/12/07 13:01:14;;;;;;;12.93;10.10;;;4.50;99.90;;;;;;5052156;28;20198;-84
2021/12/07 13:04:07;;;;;;;14.30;10.40;;;4.60;99.90;;;;;;5052491;28;20209;-84
2021/12/07 13:06:53;;;;;;;12.27;10.90;;;4.50;99.90;;;;;;5052456;28;20289;-84
2021/12/07 13:09:26;;;;;;;11.30;10.10;;;4.60;99.90;;;;;;5052014;28;20236;-84
2021/12/07 13:11:57;;;;;;;10.20;9.18;;;4.50;99.90;;;;;;5054020;28;20292;-84
2021/12/07 13:14:36;;;;;;;10.38;9.32;;;4.60;99.90;;;;;;5056433;28;20221;-84
2021/12/07 13:17:17;;;;;;;11.40;9.50;;;4.60;99.90;;;;;;5056118;28;20231;-84
2021/12/07 13:20:09;;;;;;;13.90;9.00;;;4.50;99.90;;;;;;5055883;28;20239;-84
2021/12/07 13:22:43;;;;;;;8.50;7.63;;;4.40;99.90;;;;;;5056619;28;20217;-84
2021/12/07 13:25:14;;;;;;;12.25;8.52;;;4.30;99.90;;;;;;5056353;28;20210;-84
2021/12/07 13:28:24;;;;;;;10.32;8.23;;;4.30;99.90;;;;;;5055995;28;20240;-84
2021/12/07 13:31:04;;;;;;;9.20;7.50;;;4.20;99.90;;;;;;5055446;28;20213;-84
2021/12/07 13:33:38;;;;;;;8.50;7.65;;;4.20;99.90;;;;;;5056295;28;20209;-84
2021/12/07 13:36:46;;;;;;;8.90;7.20;;;4.20;99.90;;;;;;5055695;28;20237;-84
2021/12/07 13:39:44;;;;;;;7.75;6.60;;;4.20;99.90;;;;;;5055266;28;20293;-84
2021/12/07 13:42:29;;;;;;;7.43;6.72;;;4.20;99.90;;;;;;5055924;28;20271;-84
2021/12/07 13:45:01;;;;;;;7.03;6.32;;;4.20;99.90;;;;;;5055078;28;20202;-84
2021/12/07 13:47:34;;;;;;;8.60;7.10;;;4.20;99.90;;;;;;5055752;28;20313;-84
2021/12/07 13:50:07;;;;;;;7.35;6.65;;;4.20;99.90;;;;;;5055127;28;20285;-84
2021/12/07 13:52:38;;;;;;;8.32;6.85;;;4.20;99.90;;;;;;5055872;28;20236;-84
2021/12/07 13:55:10;;;;;;;6.38;5.82;;;4.30;99.90;;;;;;5055415;28;20281;-84
2021/12/07 13:57:42;;;;;;;5.57;5.00;;;4.30;99.90;;;;;;5055309;28;20222;-84
2021/12/07 14:00:16;;;;;;;6.40;5.68;;;4.30;99.90;;;;;;5055118;28;20210;-84
2021/12/07 14:02:49;;;;;;;5.28;4.50;;;4.20;99.90;;;;;;5055519;28;20201;-84
2021/12/07 14:05:21;;;;;;;5.05;4.55;;;4.20;99.90;;;;;;5055221;28;20202;-86
2021/12/07 14:07:50;;;;;;;6.10;5.50;;;4.20;99.90;;;;;;5055235;28;20229;-86
2021/12/07 14:10:22;;;;;;;5.05;4.63;;;4.10;99.90;;;;;;5055107;28;20292;-87
2021/12/07 14:12:53;;;;;;;4.45;4.15;;;4.10;99.90;;;;;;5054307;28;20269;-86
2021/12/07 14:15:24;;;;;;;6.55;5.25;;;4.10;99.90;;;;;;5055113;28;20222;-87
2021/12/07 14:17:57;;;;;;;6.13;5.53;;;4.10;99.90;;;;;;5055267;28;20221;-85
2021/12/07 14:20:35;;;;;;;6.68;5.30;;;4.10;99.90;;;;;;5054742;28;20214;-84
2021/12/07 14:23:20;;;;;;;6.18;5.57;;;4.10;99.90;;;;;;5054489;28;20255;-84
2021/12/07 14:25:55;;;;;;;5.53;5.03;;;4.10;99.90;;;;;;5054985;28;20217;-85
2021/12/07 14:28:36;;;;;;;5.60;5.10;;;4.00;99.90;;;;;;5054474;28;20245;-84
2021/12/07 14:31:11;;;;;;;6.22;4.97;;;4.00;99.90;;;;;;5054824;28;20205;-84
2021/12/07 14:33:44;;;;;;;5.35;4.65;;;4.10;99.90;;;;;;5054967;28;20262;-84
2021/12/07 14:36:15;;;;;;;4.72;4.20;;;4.00;99.90;;;;;;5054446;28;20301;-84
2021/12/07 14:38:46;;;;;;;4.32;3.92;;;4.00;99.90;;;;;;5054556;28;20229;-84